Time;durP1;ratioP1;P1;durP2;ratioP2;P2;SDS_P1;SDS_P2;PMS_P1;PMS_P2;Temp;Humidity;BMP_temperature;BMP_pressure;BME280_temperature;BME280_humidity;BME280_pressure;Samples;Min_cycle;Max_cycle;Signal;HPM_P1;HPM_P2
2022/03/10 00:01:29;;;;;;;29.50;15.90;;;;;;;-3.33;100.00;101277.66;1685168;84;21021;-68
2022/03/10 00:03:56;;;;;;;26.87;13.77;;;;;;;-3.33;100.00;101272.63;1684928;85;21049;-69
2022/03/10 00:06:23;;;;;;;27.30;14.07;;;;;;;-3.35;100.00;101278.03;1685251;84;21021;-69
2022/03/10 00:08:50;;;;;;;27.97;14.73;;;;;;;-3.46;100.00;101275.25;1685238;84;21048;-69
2022/03/10 00:11:17;;;;;;;25.93;13.73;;;;;;;-3.46;100.00;101269.81;1685071;85;20993;-68
2022/03/10 00:13:46;;;;;;;30.20;16.17;;;;;;;-3.50;100.00;101278.09;1684947;84;21044;-69
2022/03/10 00:16:14;;;;;;;19.70;11.33;;;;;;;-3.52;100.00;101277.62;1685127;85;21605;-68
2022/03/10 00:18:42;;;;;;;24.07;12.83;;;;;;;-3.62;100.00;101278.63;1686395;84;21017;-68
2022/03/10 00:21:10;;;;;;;23.20;12.60;;;;;;;-3.69;100.00;101280.92;1691791;83;21037;-70
2022/03/10 00:23:36;;;;;;;29.83;13.83;;;;;;;-3.71;100.00;101282.55;1691926;85;21158;-68
2022/03/10 00:26:03;;;;;;;27.00;13.97;;;;;;;-3.68;100.00;101278.88;1692017;84;21090;-68
2022/03/10 00:28:30;;;;;;;24.20;12.97;;;;;;;-3.65;100.00;101274.78;1674394;85;21025;-67
2022/03/10 00:30:57;;;;;;;22.33;10.87;;;;;;;-3.68;100.00;101280.98;1691933;83;21084;-70
2022/03/10 00:33:24;;;;;;;19.93;10.33;;;;;;;-3.83;100.00;101273.88;1691869;83;21017;-68
2022/03/10 00:35:51;;;;;;;18.97;9.60;;;;;;;-3.80;100.00;101273.11;1691915;83;21069;-68
2022/03/10 00:38:18;;;;;;;15.80;8.60;;;;;;;-3.82;100.00;101275.57;1692078;83;21560;-69
2022/03/10 00:40:46;;;;;;;16.47;9.13;;;;;;;-3.90;100.00;101279.95;1692042;84;21185;-70
2022/03/10 00:43:14;;;;;;;17.33;9.20;;;;;;;-3.94;100.00;101275.66;1692074;83;21092;-68
2022/03/10 00:45:41;;;;;;;21.57;10.33;;;;;;;-3.97;100.00;101281.45;1691944;84;21730;-69
2022/03/10 00:48:09;;;;;;;17.30;9.43;;;;;;;-3.97;100.00;101283.97;1692208;83;21009;-68
2022/03/10 00:50:37;;;;;;;19.23;9.43;;;;;;;-3.92;100.00;101281.16;1691925;83;21485;-69
2022/03/10 00:53:04;;;;;;;17.93;10.03;;;;;;;-3.90;100.00;101282.47;1691917;85;21105;-69
2022/03/10 00:55:30;;;;;;;22.23;10.30;;;;;;;-3.86;100.00;101283.84;1692195;85;21069;-69
2022/03/10 00:57:57;;;;;;;18.17;9.90;;;;;;;-3.85;100.00;101279.28;1691911;83;21065;-69
2022/03/10 01:00:28;;;;;;;19.00;9.47;;;;;;;-3.85;100.00;101281.80;1691838;83;21032;-67
2022/03/10 01:02:55;;;;;;;20.27;10.03;;;;;;;-3.83;100.00;101288.13;1683899;85;21107;-69
2022/03/10 01:05:22;;;;;;;20.73;10.40;;;;;;;-3.89;100.00;101287.97;1692190;85;21041;-69
2022/03/10 01:07:49;;;;;;;18.70;10.63;;;;;;;-3.96;100.00;101286.08;1691750;84;21045;-69
2022/03/10 01:10:18;;;;;;;20.10;10.33;;;;;;;-4.01;100.00;101293.50;1691998;83;21037;-69
2022/03/10 01:12:46;;;;;;;21.57;10.40;;;;;;;-4.05;100.00;101303.03;1691746;84;21017;-68
2022/03/10 01:15:17;;;;;;;22.40;11.13;;;;;;;-4.08;100.00;101294.13;1691708;84;21029;-68
2022/03/10 01:17:45;;;;;;;22.60;12.17;;;;;;;-4.02;100.00;101302.69;1692114;85;21041;-68
2022/03/10 01:20:12;;;;;;;23.80;12.30;;;;;;;-4.04;100.00;101297.17;1692034;84;21070;-68
2022/03/10 01:22:40;;;;;;;22.40;11.23;;;;;;;-4.18;100.00;101294.67;1692078;85;21057;-68
2022/03/10 01:25:09;;;;;;;23.80;12.60;;;;;;;-4.24;100.00;101290.31;1691879;85;21592;-68
2022/03/10 01:27:37;;;;;;;21.07;11.93;;;;;;;-4.36;100.00;101300.89;1692233;84;21041;-69
2022/03/10 01:30:07;;;;;;;24.90;12.83;;;;;;;-4.31;100.00;101302.27;1691939;85;21081;-69
2022/03/10 01:32:35;;;;;;;29.27;12.83;;;;;;;-4.50;100.00;101309.64;1691775;85;21057;-70
2022/03/10 01:35:05;;;;;;;25.43;13.70;;;;;;;-4.59;100.00;101306.45;1682807;85;20997;-69
2022/03/10 01:37:36;;;;;;;27.40;13.33;;;;;;;-4.56;100.00;101311.97;1691997;84;21021;-68
2022/03/10 01:40:07;;;;;;;28.80;13.07;;;;;;;-4.67;100.00;101315.42;1692279;85;21506;-69
2022/03/10 01:42:35;;;;;;;26.40;13.10;;;;;;;-4.82;100.00;101318.31;1691904;85;21518;-69
2022/03/10 01:45:05;;;;;;;24.30;13.13;;;;;;;-5.01;100.00;101319.77;1683933;84;21105;-70
2022/03/10 01:47:32;;;;;;;27.00;12.97;;;;;;;-5.05;100.00;101323.45;1692073;84;21046;-68
2022/03/10 01:49:59;;;;;;;23.80;12.27;;;;;;;-5.14;100.00;101321.88;1691914;83;21600;-68
2022/03/10 01:52:27;;;;;;;22.73;11.70;;;;;;;-5.19;100.00;101327.17;1691889;85;21033;-69
2022/03/10 01:54:54;;;;;;;24.30;12.20;;;;;;;-5.27;100.00;101334.81;1691744;85;21144;-70
2022/03/10 01:57:21;;;;;;;23.63;12.23;;;;;;;-5.32;100.00;101338.43;1691994;83;21576;-68
2022/03/10 01:59:47;;;;;;;26.47;12.80;;;;;;;-5.34;100.00;101332.92;1691800;84;21026;-69
2022/03/10 02:02:15;;;;;;;24.83;12.57;;;;;;;-5.26;100.00;101337.38;1691942;83;21523;-70
2022/03/10 02:04:42;;;;;;;24.30;12.60;;;;;;;-5.27;100.00;101339.83;1691756;84;21042;-68
2022/03/10 02:10:16;;;;;;;22.83;11.97;;;;;;;-5.26;100.00;101339.89;1691790;85;21054;-69
2022/03/10 02:12:24;;;;;;;20.73;10.90;;;;;;;-5.35;100.00;101348.76;1691892;85;21029;-68
2022/03/10 02:17:40;;;;;;;20.87;11.57;;;;;;;-5.35;100.00;101350.02;1691656;84;21129;-68
2022/03/10 02:20:10;;;;;;;20.70;10.80;;;;;;;-5.39;100.00;101347.82;1686872;85;21088;-68
2022/03/10 02:22:37;;;;;;;19.63;10.20;;;;;;;-5.45;100.00;101354.73;1683592;85;21466;-68
2022/03/10 02:25:06;;;;;;;20.90;10.20;;;;;;;-5.42;100.00;101350.62;1683718;85;21013;-68
2022/03/10 02:27:33;;;;;;;18.17;9.93;;;;;;;-5.48;100.00;101350.84;1683667;85;21084;-69
2022/03/10 02:30:02;;;;;;;17.50;9.87;;;;;;;-5.47;100.00;101346.70;1683619;85;21006;-69
2022/03/10 02:32:29;;;;;;;19.83;10.53;;;;;;;-5.49;100.00;101354.17;1683259;85;21037;-69
2022/03/10 02:34:56;;;;;;;19.60;10.43;;;;;;;-5.46;100.00;101350.50;1683889;85;21477;-70
2022/03/10 02:37:24;;;;;;;19.30;9.97;;;;;;;-5.48;100.00;101352.51;1683648;85;21517;-69
2022/03/10 02:39:50;;;;;;;20.13;9.87;;;;;;;-5.46;100.00;101355.52;1683503;85;21015;-69
2022/03/10 02:42:17;;;;;;;20.33;10.33;;;;;;;-5.47;100.00;101356.33;1683629;85;21056;-68
2022/03/10 02:44:47;;;;;;;21.97;9.90;;;;;;;-5.42;100.00;101353.97;1683252;85;21056;-68
2022/03/10 02:47:16;;;;;;;17.03;8.50;;;;;;;-5.39;100.00;101359.48;1683564;85;21545;-69
2022/03/10 02:49:44;;;;;;;13.60;7.97;;;;;;;-5.42;100.00;101360.25;1683654;85;21048;-69
2022/03/10 02:52:11;;;;;;;14.93;7.80;;;;;;;-5.42;100.00;101361.91;1683399;85;21072;-69
2022/03/10 02:54:38;;;;;;;15.07;6.90;;;;;;;-5.41;100.00;101358.58;1683620;85;21017;-69
2022/03/10 02:57:05;;;;;;;14.03;7.53;;;;;;;-5.46;100.00;101356.77;1683314;85;21056;-69
2022/03/10 02:59:32;;;;;;;16.13;7.30;;;;;;;-5.42;100.00;101356.89;1683318;85;21041;-68
2022/03/10 03:01:59;;;;;;;16.13;8.30;;;;;;;-5.42;100.00;101360.66;1703997;84;20996;-69
2022/03/10 03:04:26;;;;;;;15.83;8.43;;;;;;;-5.50;100.00;101364.99;1711772;84;21539;-68
2022/03/10 03:06:53;;;;;;;16.60;8.47;;;;;;;-5.53;100.00;101363.64;1712079;83;21094;-68
2022/03/10 03:09:22;;;;;;;14.63;7.70;;;;;;;-5.57;100.00;101364.34;1711843;84;21064;-68
2022/03/10 03:11:49;;;;;;;18.60;9.00;;;;;;;-5.65;100.00;101362.80;1711848;83;21036;-69
2022/03/10 03:14:16;;;;;;;15.00;7.67;;;;;;;-5.65;100.00;101373.24;1711930;83;21035;-68
2022/03/10 03:16:44;;;;;;;17.57;9.07;;;;;;;-5.68;100.00;101370.61;1711884;83;21508;-68
2022/03/10 03:19:11;;;;;;;17.80;9.27;;;;;;;-5.86;100.00;101375.44;1712201;83;21051;-68
2022/03/10 03:21:38;;;;;;;15.40;7.80;;;;;;;-5.85;100.00;101382.55;1716640;83;20984;-68
2022/03/10 03:24:05;;;;;;;14.67;8.13;;;;;;;-5.90;100.00;101376.12;1716787;83;21055;-68
2022/03/10 03:26:31;;;;;;;15.97;8.73;;;;;;;-6.01;100.00;101370.28;1716514;83;21507;-68
2022/03/10 03:28:59;;;;;;;15.53;8.27;;;;;;;-6.10;100.00;101372.90;1716567;84;20996;-68
2022/03/10 03:31:26;;;;;;;15.40;8.17;;;;;;;-6.06;100.00;101381.39;1716652;83;21078;-68
2022/03/10 03:33:54;;;;;;;14.77;8.20;;;;;;;-6.13;100.00;101376.52;1716485;84;21095;-68
2022/03/10 03:36:21;;;;;;;17.17;7.70;;;;;;;-6.14;100.00;101384.86;1716636;83;21034;-68
2022/03/10 03:38:48;;;;;;;15.07;7.90;;;;;;;-6.11;100.00;101383.70;1716551;84;21007;-68
2022/03/10 03:41:15;;;;;;;14.43;7.43;;;;;;;-6.11;100.00;101389.13;1716575;83;21562;-67
2022/03/10 03:43:43;;;;;;;15.13;8.43;;;;;;;-6.11;100.00;101387.46;1716549;84;21114;-68
2022/03/10 03:46:10;;;;;;;13.97;7.23;;;;;;;-6.18;100.00;101388.05;1716870;83;21476;-68
2022/03/10 03:48:37;;;;;;;17.00;7.77;;;;;;;-6.17;100.00;101397.66;1716668;83;21035;-68
2022/03/10 03:51:03;;;;;;;13.70;7.23;;;;;;;-6.16;100.00;101393.97;1716637;84;20996;-69
2022/03/10 03:53:30;;;;;;;16.50;8.27;;;;;;;-6.22;100.00;101405.38;1716663;83;21054;-69
2022/03/10 03:55:57;;;;;;;13.80;7.80;;;;;;;-6.23;100.00;101412.46;1716426;84;21151;-68
2022/03/10 03:58:24;;;;;;;16.30;8.30;;;;;;;-6.28;100.00;101408.53;1716754;83;21512;-68
2022/03/10 04:00:50;;;;;;;15.03;8.53;;;;;;;-6.32;100.00;101408.80;1716641;84;20983;-69
2022/03/10 04:03:17;;;;;;;16.13;7.97;;;;;;;-6.26;100.00;101409.04;1716623;84;21070;-68
2022/03/10 04:05:44;;;;;;;17.07;7.87;;;;;;;-6.29;100.00;101421.44;1716727;83;21074;-68
2022/03/10 04:08:11;;;;;;;16.50;7.60;;;;;;;-6.33;100.00;101410.84;1716527;83;21038;-69
2022/03/10 04:10:39;;;;;;;15.50;8.10;;;;;;;-6.38;100.00;101413.58;1716777;83;21015;-69
2022/03/10 04:13:06;;;;;;;15.03;8.50;;;;;;;-6.41;100.00;101417.20;1716508;84;21547;-68
2022/03/10 04:15:34;;;;;;;16.93;8.00;;;;;;;-6.44;100.00;101418.34;1716536;84;21133;-68
2022/03/10 04:18:02;;;;;;;16.90;7.77;;;;;;;-6.45;100.00;101426.64;1716481;83;21591;-69
2022/03/10 04:20:29;;;;;;;15.80;8.03;;;;;;;-6.46;100.00;101418.68;1718255;83;21070;-68
2022/03/10 04:22:57;;;;;;;14.33;7.70;;;;;;;-6.45;100.00;101421.25;1720727;83;21067;-72
2022/03/10 04:25:24;;;;;;;14.80;8.03;;;;;;;-6.50;100.00;101430.63;1720665;83;21046;-69
2022/03/10 04:27:53;;;;;;;15.07;8.03;;;;;;;-6.54;100.00;101427.13;1720542;83;21003;-68
2022/03/10 04:30:24;;;;;;;17.20;7.93;;;;;;;-6.52;100.00;101430.55;1720823;83;21067;-68
2022/03/10 04:32:51;;;;;;;17.07;7.57;;;;;;;-6.49;100.00;101434.82;1720696;83;21049;-70
2022/03/10 04:35:20;;;;;;;15.07;7.87;;;;;;;-6.60;100.00;101434.80;1720781;83;21024;-68
2022/03/10 04:37:50;;;;;;;14.27;7.27;;;;;;;-6.61;100.00;101445.59;1720578;83;21059;-68
2022/03/10 04:40:17;;;;;;;15.63;7.97;;;;;;;-6.54;100.00;101437.16;1721057;82;21030;-68
2022/03/10 04:42:44;;;;;;;14.43;7.30;;;;;;;-6.43;100.00;101442.98;1720715;83;21211;-70
2022/03/10 04:45:11;;;;;;;16.50;7.70;;;;;;;-6.51;100.00;101448.56;1720708;83;21051;-69
2022/03/10 04:47:41;;;;;;;12.67;6.83;;;;;;;-6.59;100.00;101455.28;1720772;83;21059;-69
2022/03/10 04:50:13;;;;;;;14.03;7.37;;;;;;;-6.59;100.00;101446.52;1720818;83;20975;-68
2022/03/10 04:52:42;;;;;;;14.27;7.00;;;;;;;-6.62;100.00;101447.66;1720952;83;21058;-68
2022/03/10 04:55:12;;;;;;;18.47;8.27;;;;;;;-6.63;100.00;101454.70;1721087;83;21070;-68
2022/03/10 04:57:41;;;;;;;15.40;7.20;;;;;;;-6.60;100.00;101459.44;1720696;83;21043;-69
2022/03/10 05:00:11;;;;;;;16.90;8.10;;;;;;;-6.52;100.00;101461.02;1720908;83;21003;-69
2022/03/10 05:02:42;;;;;;;16.57;7.80;;;;;;;-6.65;100.00;101473.41;1720618;83;20991;-68
2022/03/10 05:05:12;;;;;;;17.60;8.20;;;;;;;-6.68;100.00;101464.53;1720756;83;21015;-68
2022/03/10 05:07:42;;;;;;;15.23;8.17;;;;;;;-6.62;100.00;101466.44;1720762;83;21035;-68
2022/03/10 05:10:12;;;;;;;14.33;7.57;;;;;;;-6.71;100.00;101470.28;1720821;83;21078;-70
2022/03/10 05:12:56;;;;;;;15.27;7.30;;;;;;;-6.78;100.00;101470.80;1720745;83;21034;-69
2022/03/10 05:15:26;;;;;;;17.23;8.07;;;;;;;-6.80;100.00;101476.54;1720780;83;21086;-69
2022/03/10 05:17:55;;;;;;;13.37;7.63;;;;;;;-6.80;100.00;101477.39;1720784;83;21571;-68
2022/03/10 05:20:21;;;;;;;13.50;7.60;;;;;;;-6.89;100.00;101484.13;1718024;83;21074;-68
2022/03/10 05:22:55;;;;;;;16.70;7.50;;;;;;;-6.99;100.00;101488.68;1711973;83;21064;-70
2022/03/10 05:25:26;;;;;;;15.40;7.37;;;;;;;-6.95;100.00;101494.28;1712471;84;21078;-70
2022/03/10 05:27:52;;;;;;;13.77;7.10;;;;;;;-7.02;100.00;101486.88;1712129;83;20996;-68
2022/03/10 05:30:20;;;;;;;14.13;7.00;;;;;;;-6.90;100.00;101486.55;1712219;83;21062;-68
2022/03/10 05:32:49;;;;;;;15.53;7.00;;;;;;;-6.88;100.00;101475.80;1712066;83;21523;-68
2022/03/10 05:35:17;;;;;;;14.30;6.90;;;;;;;-7.01;100.00;101478.97;1698982;84;20984;-69
2022/03/10 05:37:46;;;;;;;13.70;7.30;;;;;;;-6.87;100.00;101487.55;1699090;84;21027;-68
2022/03/10 05:40:17;;;;;;;12.90;6.80;;;;;;;-6.88;100.00;101495.83;1711773;84;21070;-69
2022/03/10 05:42:46;;;;;;;16.23;7.87;;;;;;;-6.97;100.00;101486.70;1711979;84;21035;-68
2022/03/10 05:45:14;;;;;;;14.53;7.17;;;;;;;-6.86;100.00;101493.00;1712172;84;21031;-68
2022/03/10 05:47:42;;;;;;;12.73;6.60;;;;;;;-7.00;100.00;101493.20;1711874;84;21040;-68
2022/03/10 05:50:10;;;;;;;11.30;6.73;;;;;;;-6.92;100.00;101495.64;1712071;83;21047;-69
2022/03/10 05:52:37;;;;;;;15.20;7.13;;;;;;;-7.05;100.00;101493.87;1711969;84;21023;-68
2022/03/10 05:55:05;;;;;;;13.43;7.10;;;;;;;-6.99;100.00;101498.69;1712226;83;21004;-69
2022/03/10 05:57:33;;;;;;;15.97;7.40;;;;;;;-6.96;100.00;101491.30;1712168;83;20996;-68
2022/03/10 06:00:00;;;;;;;15.63;7.00;;;;;;;-7.07;100.00;101486.69;1711952;84;21075;-69
2022/03/10 06:02:29;;;;;;;12.97;6.40;;;;;;;-6.96;100.00;101489.64;1685668;84;21051;-69
2022/03/10 06:05:01;;;;;;;17.07;7.03;;;;;;;-7.00;100.00;101489.45;1683329;85;21040;-69
2022/03/10 06:07:29;;;;;;;14.27;6.57;;;;;;;-7.04;100.00;101497.22;1683513;85;21496;-69
2022/03/10 06:09:57;;;;;;;15.97;7.10;;;;;;;-7.01;100.00;101496.48;1683432;85;21055;-70
2022/03/10 06:12:26;;;;;;;11.60;6.37;;;;;;;-6.97;100.00;101510.88;1683582;85;21031;-69
2022/03/10 06:14:55;;;;;;;12.47;6.43;;;;;;;-6.97;100.00;101502.11;1683556;85;21011;-68
2022/03/10 06:17:24;;;;;;;12.73;6.77;;;;;;;-6.95;100.00;101502.63;1683406;85;21098;-70
2022/03/10 06:19:51;;;;;;;11.33;6.73;;;;;;;-6.88;100.00;101502.09;1683606;85;21054;-71
2022/03/10 06:22:22;;;;;;;15.77;7.20;;;;;;;-6.89;100.00;101497.05;1691609;84;21031;-68
2022/03/10 06:24:50;;;;;;;12.53;6.70;;;;;;;-6.82;100.00;101499.41;1692034;84;21022;-69
2022/03/10 06:27:19;;;;;;;13.67;6.97;;;;;;;-6.68;100.00;101497.93;1674243;85;21079;-68
2022/03/10 06:29:46;;;;;;;15.17;6.17;;;;;;;-6.62;100.00;101501.09;1692178;84;21506;-67
2022/03/10 06:32:15;;;;;;;12.57;6.60;;;;;;;-6.55;100.00;101502.20;1692025;83;21502;-75
2022/03/10 06:34:41;;;;;;;11.20;5.73;;;;;;;-6.50;100.00;101501.60;1691785;84;21035;-68
2022/03/10 06:37:09;;;;;;;12.03;6.10;;;;;;;-6.61;100.00;101498.19;1692015;85;21069;-68
2022/03/10 06:39:36;;;;;;;16.67;7.23;;;;;;;-6.65;100.00;101508.09;1691827;85;21066;-68
2022/03/10 06:42:04;;;;;;;11.00;6.10;;;;;;;-6.58;100.00;101495.42;1691958;85;21007;-69
2022/03/10 06:44:32;;;;;;;14.67;6.70;;;;;;;-6.42;100.00;101508.59;1691569;84;21067;-70
2022/03/10 06:46:59;;;;;;;13.00;6.27;;;;;;;-6.44;100.00;101485.98;1692023;84;21221;-68
2022/03/10 06:49:25;;;;;;;13.37;6.47;;;;;;;-6.31;100.00;101488.16;1692040;84;21075;-69
2022/03/10 06:51:52;;;;;;;12.00;6.30;;;;;;;-6.11;100.00;101485.61;1691854;85;20988;-69
2022/03/10 06:54:20;;;;;;;11.70;6.03;;;;;;;-6.05;100.00;101500.48;1691794;84;21059;-71
2022/03/10 06:56:47;;;;;;;13.80;6.70;;;;;;;-6.08;100.00;101487.00;1691911;84;21443;-70
2022/03/10 06:59:14;;;;;;;14.03;6.90;;;;;;;-5.94;100.00;101489.62;1691966;84;21019;-70
2022/03/10 07:01:41;;;;;;;13.67;6.20;;;;;;;-6.04;100.00;101490.09;1692026;83;21104;-71
2022/03/10 07:04:08;;;;;;;13.53;6.10;;;;;;;-6.09;100.00;101499.91;1691983;83;21037;-70
2022/03/10 07:06:34;;;;;;;17.23;7.40;;;;;;;-6.05;100.00;101487.11;1692091;85;21040;-70
2022/03/10 07:09:03;;;;;;;14.23;6.77;;;;;;;-5.91;100.00;101511.03;1691877;83;21526;-70
2022/03/10 07:11:30;;;;;;;13.83;6.27;;;;;;;-5.97;100.00;101496.19;1692108;83;21064;-62
2022/03/10 07:13:58;;;;;;;11.17;6.60;;;;;;;-5.91;100.00;101495.98;1691909;84;21108;-62
2022/03/10 07:16:24;;;;;;;15.00;6.80;;;;;;;-6.01;99.56;101500.22;1692173;83;21096;-63
2022/03/10 07:18:51;;;;;;;12.90;6.53;;;;;;;-6.25;100.00;101496.33;1674070;84;21061;-61
2022/03/10 07:21:21;;;;;;;13.13;6.57;;;;;;;-6.23;100.00;101488.48;1688105;83;21032;-61
2022/03/10 07:23:49;;;;;;;14.27;6.27;;;;;;;-6.14;100.00;101486.73;1683686;84;21021;-61
2022/03/10 07:26:17;;;;;;;14.57;7.10;;;;;;;-6.07;100.00;101492.05;1683531;84;21631;-62
2022/03/10 07:28:44;;;;;;;14.97;6.87;;;;;;;-6.13;100.00;101488.05;1671147;85;21077;-61
2022/03/10 07:31:11;;;;;;;11.87;6.03;;;;;;;-5.92;100.00;101488.02;1683447;84;21048;-63
2022/03/10 07:33:38;;;;;;;13.77;7.13;;;;;;;-5.90;99.46;101493.95;1670882;84;21080;-62
2022/03/10 07:36:06;;;;;;;13.10;6.77;;;;;;;-5.83;98.62;101498.80;1683352;84;21092;-61
2022/03/10 07:38:33;;;;;;;11.37;6.77;;;;;;;-5.95;98.21;101494.19;1683538;84;21536;-61
2022/03/10 07:40:59;;;;;;;13.03;6.67;;;;;;;-5.85;98.94;101481.18;1683686;85;21526;-63
2022/03/10 07:43:26;;;;;;;14.00;6.67;;;;;;;-5.67;99.28;101485.20;1683401;84;21057;-62
2022/03/10 07:45:54;;;;;;;12.40;6.40;;;;;;;-5.65;98.93;101480.69;1683716;84;21057;-62
2022/03/10 07:48:21;;;;;;;12.70;6.20;;;;;;;-5.66;98.07;101482.75;1683406;85;21080;-61
2022/03/10 07:50:49;;;;;;;12.20;6.40;;;;;;;-5.63;98.10;101480.75;1683857;85;21032;-61
2022/03/10 07:53:16;;;;;;;14.43;6.07;;;;;;;-5.76;97.41;101481.08;1684971;84;21053;-63
2022/03/10 07:55:45;;;;;;;14.87;6.73;;;;;;;-5.67;98.08;101507.77;1696927;83;21032;-61
2022/03/10 07:58:12;;;;;;;12.87;6.83;;;;;;;-5.57;98.83;101475.96;1690052;84;21012;-61
2022/03/10 08:00:41;;;;;;;13.67;6.70;;;;;;;-5.53;98.44;101469.41;1695235;84;21060;-61
2022/03/10 08:03:08;;;;;;;12.27;6.10;;;;;;;-5.52;97.50;101480.73;1699000;84;20968;-62
2022/03/10 08:05:35;;;;;;;14.07;6.87;;;;;;;-5.43;97.75;101485.26;1696158;84;21018;-62
2022/03/10 08:08:04;;;;;;;14.13;6.40;;;;;;;-5.14;97.83;101472.50;1697335;84;21071;-61
2022/03/10 08:10:31;;;;;;;12.80;6.57;;;;;;;-5.07;96.31;101475.69;1699278;84;21023;-63
2022/03/10 08:13:01;;;;;;;12.33;6.23;;;;;;;-5.03;96.57;101471.61;1697147;84;21504;-63
2022/03/10 08:15:28;;;;;;;14.40;7.03;;;;;;;-4.93;95.05;101484.09;1696610;83;21047;-61
2022/03/10 08:17:55;;;;;;;12.33;6.80;;;;;;;-5.12;93.44;101475.91;1698813;83;20992;-62
2022/03/10 08:20:23;;;;;;;14.63;7.03;;;;;;;-5.00;95.85;101474.24;1697600;84;21059;-62
2022/03/10 08:22:50;;;;;;;14.00;7.40;;;;;;;-5.01;94.74;101481.72;1704479;83;21740;-61
2022/03/10 08:25:18;;;;;;;13.40;7.13;;;;;;;-4.94;95.02;101475.70;1688657;83;21015;-62
2022/03/10 08:27:47;;;;;;;13.33;6.80;;;;;;;-4.99;94.11;101495.17;1705147;83;21064;-62
2022/03/10 08:30:16;;;;;;;13.53;7.03;;;;;;;-5.24;94.22;101472.56;1708696;83;21003;-60
2022/03/10 08:32:44;;;;;;;14.53;7.20;;;;;;;-5.10;96.08;101481.00;1706152;83;21123;-60
2022/03/10 08:35:12;;;;;;;16.03;6.50;;;;;;;-4.91;96.40;101475.80;1707685;83;21570;-61
2022/03/10 08:37:39;;;;;;;13.27;6.67;;;;;;;-4.73;96.42;101479.34;1707826;83;20987;-62
2022/03/10 08:40:08;;;;;;;15.10;7.37;;;;;;;-4.73;94.92;101473.48;1704186;83;21042;-62
2022/03/10 08:42:34;;;;;;;15.03;7.17;;;;;;;-4.81;94.46;101472.36;1704243;83;21050;-62
2022/03/10 08:45:02;;;;;;;13.57;7.13;;;;;;;-4.65;94.15;101479.61;1706411;83;21023;-62
2022/03/10 08:47:32;;;;;;;15.70;7.03;;;;;;;-4.87;93.18;101490.17;1704462;83;21055;-62
2022/03/10 08:50:02;;;;;;;14.57;7.20;;;;;;;-4.92;94.53;101479.54;1706212;83;20963;-62
2022/03/10 08:52:29;;;;;;;11.70;6.73;;;;;;;-4.78;96.01;101467.05;1690113;83;21046;-61
2022/03/10 08:54:56;;;;;;;12.60;7.43;;;;;;;-4.75;95.11;101471.31;1717551;83;20983;-62
2022/03/10 08:57:26;;;;;;;16.27;7.03;;;;;;;-4.59;94.55;101474.80;1720634;83;21527;-61
2022/03/10 08:59:53;;;;;;;16.43;7.30;;;;;;;-4.52;94.04;101488.41;1702621;83;21015;-62
2022/03/10 09:02:19;;;;;;;14.73;7.27;;;;;;;-4.41;94.38;101465.75;1719428;83;21131;-62
2022/03/10 09:04:46;;;;;;;15.63;7.63;;;;;;;-4.36;94.34;101475.56;1718553;83;21055;-62
2022/03/10 09:07:13;;;;;;;16.50;7.33;;;;;;;-4.58;91.93;101491.97;1718565;83;21555;-62
2022/03/10 09:09:40;;;;;;;13.63;6.97;;;;;;;-4.47;94.65;101468.06;1700129;83;21125;-62
2022/03/10 09:12:09;;;;;;;17.10;7.63;;;;;;;-4.50;93.82;101487.67;1720070;83;21047;-62
2022/03/10 09:14:36;;;;;;;14.63;7.80;;;;;;;-4.44;94.10;101469.03;1719975;83;21571;-61
2022/03/10 09:17:03;;;;;;;13.83;6.90;;;;;;;-4.22;94.99;101481.01;1719870;83;21046;-62
2022/03/10 09:19:30;;;;;;;13.00;6.70;;;;;;;-4.31;93.12;101470.68;1719537;83;21106;-61
2022/03/10 09:21:58;;;;;;;15.07;6.90;;;;;;;-4.13;94.26;101470.00;1715503;83;21016;-62
2022/03/10 09:24:26;;;;;;;13.67;7.23;;;;;;;-4.03;94.10;101472.41;1711114;84;21099;-61
2022/03/10 09:26:53;;;;;;;14.87;7.17;;;;;;;-4.10;93.14;101466.31;1711147;83;21504;-62
2022/03/10 09:29:19;;;;;;;14.80;6.97;;;;;;;-4.07;92.65;101471.86;1711077;83;21058;-63
2022/03/10 09:31:46;;;;;;;14.03;6.77;;;;;;;-4.06;94.26;101473.14;1710971;83;21047;-62
2022/03/10 09:34:13;;;;;;;16.20;8.53;;;;;;;-3.91;92.62;101470.27;1711334;84;21043;-62
2022/03/10 09:36:40;;;;;;;15.30;6.60;;;;;;;-3.87;91.60;101474.58;1702959;84;21038;-62
2022/03/10 09:39:07;;;;;;;14.07;8.07;;;;;;;-3.96;91.26;101470.52;1707286;84;21051;-62
2022/03/10 09:41:37;;;;;;;12.03;6.60;;;;;;;-3.83;91.46;101471.36;1703313;83;20995;-62
2022/03/10 09:44:17;;;;;;;14.73;7.33;;;;;;;-4.13;91.02;101467.90;1695256;83;21590;-61
2022/03/10 09:46:50;;;;;;;15.33;7.10;;;;;;;-4.06;92.26;101466.01;1684047;84;20987;-61
2022/03/10 09:49:21;;;;;;;12.43;6.37;;;;;;;-3.91;91.83;101466.50;1685205;84;21023;-62
2022/03/10 09:51:50;;;;;;;13.70;6.87;;;;;;;-3.79;91.50;101466.39;1693770;84;20999;-61
2022/03/10 09:54:17;;;;;;;12.90;6.20;;;;;;;-3.92;90.05;101487.41;1695359;83;21034;-62
2022/03/10 09:56:44;;;;;;;13.40;6.80;;;;;;;-3.94;90.99;101468.90;1697255;84;20972;-61
2022/03/10 09:59:12;;;;;;;13.77;6.73;;;;;;;-3.67;91.92;101462.98;1685399;84;21051;-62
2022/03/10 10:01:39;;;;;;;14.33;6.83;;;;;;;-3.82;90.52;101457.95;1695159;84;21054;-62
2022/03/10 10:04:06;;;;;;;14.33;6.80;;;;;;;-4.07;90.01;101463.06;1697076;84;20972;-63
2022/03/10 10:07:05;;;;;;;15.77;7.50;;;;;;;-3.93;91.96;101459.72;1698067;84;21104;-61
2022/03/10 10:09:51;;;;;;;12.97;7.47;;;;;;;-3.83;91.60;101468.84;1698057;84;20979;-61
2022/03/10 10:12:22;;;;;;;12.63;6.80;;;;;;;-3.84;89.09;101465.86;1684435;84;21032;-63
2022/03/10 10:14:47;;;;;;;13.23;7.00;;;;;;;-3.73;91.24;101457.39;1692291;83;21027;-61
2022/03/10 10:17:28;;;;;;;12.23;6.53;;;;;;;-3.69;91.96;101455.80;1658838;84;21087;-62
2022/03/10 10:20:00;;;;;;;13.57;6.70;;;;;;;-3.75;90.25;101447.69;1681289;84;21109;-61
2022/03/10 10:22:28;;;;;;;12.53;6.30;;;;;;;-3.59;90.49;101445.19;1696655;84;22045;-60
2022/03/10 10:25:05;;;;;;;11.27;6.50;;;;;;;-3.45;89.97;101456.53;1685328;84;21025;-61
2022/03/10 10:27:34;;;;;;;12.90;7.10;;;;;;;-3.72;90.27;101455.72;1711000;83;21035;-62
2022/03/10 10:30:05;;;;;;;13.03;6.60;;;;;;;-3.69;90.62;101443.22;1697715;84;21653;-61
2022/03/10 10:32:49;;;;;;;15.77;7.13;;;;;;;-3.90;88.81;101439.26;1698314;84;21552;-61
2022/03/10 10:35:21;;;;;;;14.40;6.83;;;;;;;-3.88;90.08;101446.45;1690261;84;21579;-61
2022/03/10 10:37:52;;;;;;;12.57;6.53;;;;;;;-3.75;91.04;101442.66;1708036;84;20999;-61
2022/03/10 10:40:27;;;;;;;13.30;6.60;;;;;;;-3.46;90.14;101430.05;1711134;83;20976;-61
2022/03/10 10:42:56;;;;;;;14.17;6.70;;;;;;;-3.49;90.62;101436.24;1711417;84;21090;-61
2022/03/10 10:45:33;;;;;;;11.73;6.43;;;;;;;-3.28;89.27;101437.27;1711013;84;21070;-62
2022/03/10 10:48:12;;;;;;;12.40;6.70;;;;;;;-2.85;88.89;101428.33;1711178;83;21055;-62
2022/03/10 10:50:46;;;;;;;11.53;6.33;;;;;;;-2.95;87.51;101436.05;1711103;83;21078;-61
2022/03/10 10:53:36;;;;;;;13.83;6.67;;;;;;;-3.08;87.50;101439.92;1711222;84;20975;-60
2022/03/10 10:56:01;;;;;;;15.77;7.83;;;;;;;-3.36;89.84;101444.60;1711083;83;20996;-60
2022/03/10 10:58:28;;;;;;;14.17;7.53;;;;;;;-3.17;90.93;101437.55;1711042;84;21070;-61
2022/03/10 11:00:57;;;;;;;12.70;6.73;;;;;;;-3.05;90.90;101441.23;1711063;83;21051;-60
2022/03/10 11:03:31;;;;;;;9.93;6.17;;;;;;;-3.16;92.19;101441.76;1711334;83;21008;-61
2022/03/10 11:05:59;;;;;;;12.15;7.15;;;;;;;-3.18;91.75;101439.22;1711482;84;21079;-62
2022/03/10 11:08:28;;;;;;;10.90;6.57;;;;;;;-3.17;92.48;101435.88;1698240;84;21075;-61
2022/03/10 11:10:55;;;;;;;11.93;6.30;;;;;;;-2.98;90.17;101441.02;1711408;84;21019;-62
2022/03/10 11:13:23;;;;;;;10.93;6.30;;;;;;;-2.96;88.16;101441.03;1697039;84;21038;-61
2022/03/10 11:15:53;;;;;;;12.20;6.23;;;;;;;-2.81;86.92;101449.00;1711573;84;21448;-61
2022/03/10 11:18:23;;;;;;;13.87;6.73;;;;;;;-2.82;86.39;101437.20;1712074;83;21011;-60
2022/03/10 11:21:05;;;;;;;13.73;6.50;;;;;;;-2.46;88.67;101433.91;1711808;83;21004;-60